createdAt,value
2022-11-19T00:00:45.943Z,97748.34
2022-11-19T00:05:49.763Z,97743.69
2022-11-19T00:10:51.636Z,97762.69
2022-11-19T00:15:53.405Z,97770.47
2022-11-19T00:20:56.538Z,97768.84
2022-11-19T00:26:08.515Z,97769.06
2022-11-19T00:31:13.799Z,97764.28
2022-11-19T00:36:15.910Z,97753.59
2022-11-19T00:41:17.799Z,97767.38
2022-11-19T00:46:26.033Z,97785.56
2022-11-19T00:51:30.616Z,97789.88
2022-11-19T00:56:32.791Z,97789.66
2022-11-19T01:01:34.768Z,97790.34
2022-11-19T01:06:37.061Z,97783.72
2022-11-19T01:11:39.281Z,97791.94
2022-11-19T01:16:41.923Z,97797.34
2022-11-19T01:21:43.945Z,97795.84
2022-11-19T01:26:46.340Z,97802.81
2022-11-19T01:31:48.493Z,97803.94
2022-11-19T01:36:50.911Z,97800.09
2022-11-19T01:41:52.706Z,97805.63
2022-11-19T01:46:54.448Z,97800.03
2022-11-19T01:52:00.924Z,97816.34
2022-11-19T01:57:09.103Z,97820.94
2022-11-19T02:02:10.964Z,97828.19
2022-11-19T02:07:14.259Z,97830.16
2022-11-19T02:12:41.127Z,97834.75
2022-11-19T02:17:53.042Z,97829.97
2022-11-19T02:23:16.678Z,97827.72
2022-11-19T02:28:36.958Z,97839.03
2022-11-19T02:33:54.816Z,97839.25
2022-11-19T02:39:04.987Z,97844.56
2022-11-19T02:44:34.416Z,97835.47
2022-11-19T02:49:41.862Z,97842.41
2022-11-19T02:54:43.847Z,97836.59
2022-11-19T03:00:15.185Z,97830.78
2022-11-19T03:05:21.639Z,97833.66
2022-11-19T03:10:28.868Z,97829.38
2022-11-19T03:16:07.048Z,97843.03
2022-11-19T03:21:35.517Z,97850.78
2022-11-19T03:26:44.961Z,97855.16
2022-11-19T03:31:53.626Z,97864.72
2022-11-19T03:37:00.133Z,97860.75
2022-11-19T03:42:10.195Z,97870.31
2022-11-19T03:47:16.747Z,97871.44
2022-11-19T03:52:21.083Z,97866.44
2022-11-19T03:57:27.011Z,97876.84
2022-11-19T04:02:28.852Z,97886.31
2022-11-19T04:07:30.716Z,97887.22
2022-11-19T04:12:32.907Z,97882.94
2022-11-19T04:17:34.936Z,97884.56
2022-11-19T04:22:36.845Z,97888.94
2022-11-19T04:27:38.740Z,97887.50
2022-11-19T04:32:41.509Z,97886.09
2022-11-19T04:37:43.530Z,97888.81
2022-11-19T04:42:45.345Z,97878.03
2022-11-19T04:47:47.202Z,97883.41
2022-11-19T04:52:48.998Z,97891.16
2022-11-19T04:57:52.266Z,97888.59
2022-11-19T05:02:54.282Z,97890.22
2022-11-19T05:07:56.345Z,97891.88
2022-11-19T05:12:58.194Z,97896.22
2022-11-19T05:18:00.037Z,97904.88
2022-11-19T05:23:01.849Z,97900.81
2022-11-19T05:28:03.790Z,97897.53
2022-11-19T05:33:05.818Z,97901.19
2022-11-19T05:38:08.925Z,97914.81
2022-11-19T05:43:10.799Z,97920.94
2022-11-19T05:48:12.597Z,97923.56
2022-11-19T05:53:14.391Z,97925.28
2022-11-19T05:58:16.240Z,97924.56
2022-11-19T06:03:18.329Z,97927.22
2022-11-19T06:08:20.388Z,97935.75
2022-11-19T06:13:22.173Z,97941.97
2022-11-19T06:18:24.179Z,97951.41
2022-11-19T06:23:26.020Z,97952.59
2022-11-19T06:28:30.453Z,97952.97
2022-11-19T06:33:32.418Z,97965.69
2022-11-19T06:38:34.323Z,97975.06
2022-11-19T06:43:36.079Z,97975.59
2022-11-19T06:48:38.281Z,97972.13
2022-11-19T06:53:40.359Z,97968.50
2022-11-19T06:59:10.976Z,97969.94
2022-11-19T07:04:12.936Z,97973.84
2022-11-19T07:09:18.328Z,97987.00
2022-11-19T07:14:23.425Z,97987.34
2022-11-19T07:19:25.332Z,97986.78
2022-11-19T07:24:27.324Z,97976.91
2022-11-19T07:29:29.211Z,97978.38
2022-11-19T07:34:31.158Z,97982.97
2022-11-19T07:39:32.976Z,97976.47
2022-11-19T07:44:34.958Z,97964.06
2022-11-19T07:49:36.900Z,97966.75
2022-11-19T07:54:38.738Z,97966.16
2022-11-19T07:59:40.628Z,97963.00
2022-11-19T08:04:42.867Z,97973.41
2022-11-19T08:09:44.906Z,97969.44
2022-11-19T08:14:46.869Z,97967.00
2022-11-19T08:19:49.069Z,97973.22
2022-11-19T08:24:51.312Z,97976.97
2022-11-19T08:29:53.283Z,97978.19
2022-11-19T08:34:55.141Z,97978.09
2022-11-19T08:39:57.164Z,97977.84
2022-11-19T08:44:59.248Z,97972.94
2022-11-19T08:50:01.684Z,97978.94
2022-11-19T08:55:04.105Z,97965.25
2022-11-19T09:00:06.996Z,97964.00
2022-11-19T09:05:14.435Z,97971.88
2022-11-19T09:10:17.347Z,97966.84
2022-11-19T09:15:20.506Z,97979.06
2022-11-19T09:20:22.683Z,97975.69
2022-11-19T09:25:24.915Z,97972.94
2022-11-19T09:30:27.271Z,97974.75
2022-11-19T09:35:29.301Z,97973.28
2022-11-19T09:40:31.816Z,97971.59
2022-11-19T09:45:43.063Z,97982.34
2022-11-19T09:50:58.433Z,97984.34
2022-11-19T09:56:00.744Z,97969.72
2022-11-19T10:01:03.291Z,97965.91
2022-11-19T10:06:27.858Z,97966.28
2022-11-19T10:12:08.175Z,97977.91
2022-11-19T10:17:30.661Z,97980.47
2022-11-19T10:23:06.537Z,97972.78
2022-11-19T10:28:15.702Z,97974.75
2022-11-19T10:33:32.878Z,97976.50
2022-11-19T10:38:40.233Z,97979.75
2022-11-19T10:43:48.839Z,97971.75
2022-11-19T10:48:55.139Z,97969.09
2022-11-19T10:53:57.812Z,97967.56
2022-11-19T10:59:16.537Z,97963.97
2022-11-19T11:04:22.895Z,97962.34
2022-11-19T11:09:42.068Z,97960.94
2022-11-19T11:14:55.033Z,97951.31
2022-11-19T11:20:08.257Z,97937.00
2022-11-19T11:25:19.667Z,97933.16
2022-11-19T11:30:21.838Z,97930.50
2022-11-19T11:35:38.848Z,97930.97
2022-11-19T11:40:41.008Z,97929.81
2022-11-19T11:45:43.278Z,97927.97
2022-11-19T11:50:46.157Z,97923.88
2022-11-19T11:55:57.457Z,97921.44
2022-11-19T12:01:19.985Z,97923.53
2022-11-19T12:06:28.991Z,97923.75
2022-11-19T12:11:55.147Z,97921.31
2022-11-19T12:17:22.978Z,97918.63
2022-11-19T12:22:54.363Z,97914.34
2022-11-19T12:28:09.866Z,97903.31
2022-11-19T12:33:40.268Z,97900.03
2022-11-19T12:38:53.673Z,97891.44
2022-11-19T12:44:00.858Z,97892.25
2022-11-19T12:49:18.211Z,97880.19
2022-11-19T12:54:46.667Z,97886.81
2022-11-19T13:00:10.920Z,97875.88
2022-11-19T13:05:43.962Z,97885.28
2022-11-19T13:10:51.244Z,97881.00
2022-11-19T13:16:00.556Z,97886.00
2022-11-19T13:21:08.663Z,97871.69
2022-11-19T13:26:39.409Z,97870.31
2022-11-19T13:32:07.561Z,97861.94
2022-11-19T13:37:32.228Z,97868.91
2022-11-19T13:43:17.151Z,97874.00
2022-11-19T13:48:15.530Z,97863.78
2022-11-19T13:53:34.778Z,97865.66
2022-11-19T13:58:40.412Z,97868.19
2022-11-19T14:04:14.050Z,97872.50
2022-11-19T14:09:38.464Z,97878.66
2022-11-19T14:15:02.075Z,97884.09
2022-11-19T14:20:49.651Z,97880.25
2022-11-19T14:26:10.399Z,97879.78
2022-11-19T14:31:13.698Z,97887.78
2022-11-19T14:36:44.349Z,97889.72
2022-11-19T14:41:46.318Z,97883.44
2022-11-19T14:46:49.405Z,97876.22
2022-11-19T14:51:55.157Z,97874.00
2022-11-19T14:57:38.465Z,97873.63
2022-11-19T15:02:48.718Z,97875.00
2022-11-19T15:08:11.984Z,97877.97
2022-11-19T15:13:20.437Z,97874.00
2022-11-19T15:18:40.533Z,97876.09
2022-11-19T15:24:17.647Z,97876.28
2022-11-19T15:29:34.655Z,97879.19
2022-11-19T15:35:10.220Z,97879.50
2022-11-19T15:40:17.653Z,97879.72
2022-11-19T15:45:24.130Z,97885.13
2022-11-19T15:50:28.579Z,97896.47
2022-11-19T15:55:31.960Z,97891.59
2022-11-19T16:00:45.967Z,97891.00
2022-11-19T16:06:08.593Z,97888.66
2022-11-19T16:11:35.908Z,97891.41
2022-11-19T16:16:57.742Z,97889.06
2022-11-19T16:22:03.275Z,97887.66
2022-11-19T16:27:10.675Z,97877.81
2022-11-19T16:32:19.536Z,97869.56
2022-11-19T16:37:22.346Z,97868.84
2022-11-19T16:42:29.373Z,97864.75
2022-11-19T16:47:51.612Z,97870.06
2022-11-19T16:52:55.002Z,97870.28
2022-11-19T16:58:00.028Z,97872.22
2022-11-19T17:03:16.942Z,97868.97
2022-11-19T17:08:23.560Z,97870.19
2022-11-19T17:13:32.534Z,97870.41
2022-11-19T17:18:34.768Z,97862.88
2022-11-19T17:23:48.337Z,97863.19
2022-11-19T17:28:54.959Z,97872.78
2022-11-19T17:33:58.599Z,97879.19
2022-11-19T17:39:00.582Z,97888.16
2022-11-19T17:44:21.229Z,97891.75
2022-11-19T17:49:23.320Z,97897.75
2022-11-19T17:54:25.662Z,97900.31
2022-11-19T17:59:27.548Z,97904.59
2022-11-19T18:04:29.391Z,97904.78
2022-11-19T18:09:34.897Z,97904.78
2022-11-19T18:14:37.202Z,97912.53
2022-11-19T18:19:39.325Z,97912.63
2022-11-19T18:24:41.175Z,97912.72
2022-11-19T18:29:43.004Z,97918.84
2022-11-19T18:34:46.177Z,97916.31
2022-11-19T18:39:48.462Z,97924.75
2022-11-19T18:44:50.720Z,97930.78
2022-11-19T18:49:52.465Z,97924.03
2022-11-19T18:54:54.905Z,97919.88
2022-11-19T18:59:56.782Z,97916.69
2022-11-19T19:04:58.618Z,97920.25
2022-11-19T19:10:00.817Z,97918.84
2022-11-19T19:15:03.084Z,97914.75
2022-11-19T19:20:06.520Z,97918.41
2022-11-19T19:25:09.233Z,97919.34
2022-11-19T19:30:11.440Z,97918.63
2022-11-19T19:35:13.630Z,97916.38
2022-11-19T19:40:15.402Z,97922.66
2022-11-19T19:45:17.263Z,97925.31
2022-11-19T19:50:19.079Z,97933.06
2022-11-19T19:55:21.029Z,97938.44
2022-11-19T20:00:23.805Z,97935.28
2022-11-19T20:05:25.514Z,97934.56
2022-11-19T20:10:27.318Z,97938.00
2022-11-19T20:15:29.169Z,97939.75
2022-11-19T20:20:31.018Z,97941.66
2022-11-19T20:25:32.859Z,97941.75
2022-11-19T20:30:35.319Z,97942.78
2022-11-19T20:35:37.272Z,97950.59
2022-11-19T20:40:39.293Z,97948.16
2022-11-19T20:45:41.192Z,97939.69
2022-11-19T20:50:42.975Z,97939.69
2022-11-19T20:56:04.628Z,97943.97
2022-11-19T21:01:12.103Z,97950.88
2022-11-19T21:06:13.896Z,97944.25
2022-11-19T21:11:16.453Z,97936.00
2022-11-19T21:16:21.420Z,97935.19
2022-11-19T21:21:24.492Z,97931.91
2022-11-19T21:26:28.116Z,97925.19
2022-11-19T21:31:39.879Z,97919.50
2022-11-19T21:36:43.087Z,97925.59
2022-11-19T21:41:45.013Z,97931.69
2022-11-19T21:46:46.854Z,97933.41
2022-11-19T21:51:49.143Z,97938.50
2022-11-19T21:56:50.950Z,97934.31
2022-11-19T22:01:54.845Z,97927.59
2022-11-19T22:06:56.855Z,97918.53
2022-11-19T22:11:58.701Z,97915.44
2022-11-19T22:17:00.529Z,97908.81
2022-11-19T22:22:03.510Z,97910.75
2022-11-19T22:27:05.261Z,97911.66
2022-11-19T22:32:07.202Z,97909.09
2022-11-19T22:37:08.943Z,97896.38
2022-11-19T22:42:10.771Z,97902.28
2022-11-19T22:47:14.753Z,97902.56
2022-11-19T22:52:17.785Z,97900.22
2022-11-19T22:57:19.491Z,97893.06
2022-11-19T23:02:21.215Z,97895.69
2022-11-19T23:07:23.004Z,97890.00
2022-11-19T23:12:43.335Z,97894.44
2022-11-19T23:17:45.036Z,97885.09
2022-11-19T23:22:46.783Z,97880.72
2022-11-19T23:27:48.540Z,97873.19
2022-11-19T23:32:50.282Z,97871.47
2022-11-19T23:37:52.156Z,97875.53
2022-11-19T23:42:53.895Z,97878.81
2022-11-19T23:47:55.632Z,97870.38
2022-11-19T23:52:57.396Z,97877.19
2022-11-19T23:57:59.144Z,97875.72
